createdAt,value
2019-04-22T00:00:30.764Z,14.40
2019-04-22T00:01:32.365Z,14.00
2019-04-22T00:02:40.002Z,13.00
2019-04-22T00:03:45.301Z,12.20
2019-04-22T00:04:56.242Z,13.00
2019-04-22T00:06:05.276Z,11.00
2019-04-22T00:07:19.721Z,13.80
2019-04-22T00:08:19.201Z,12.20
2019-04-22T00:09:24.089Z,13.40
2019-04-22T00:10:35.812Z,10.80
2019-04-22T00:11:48.590Z,11.40
2019-04-22T00:12:46.841Z,14.80
2019-04-22T00:14:48.359Z,17.60
2019-04-22T00:15:53.879Z,14.00
2019-04-22T00:16:58.883Z,15.20
2019-04-22T00:18:07.443Z,14.60
2019-04-22T00:19:15.451Z,8.80
2019-04-22T00:20:08.600Z,14.20
2019-04-22T00:21:20.132Z,14.80
2019-04-22T00:22:26.084Z,15.00
2019-04-22T00:23:24.580Z,19.20
2019-04-22T00:24:24.285Z,14.20
2019-04-22T00:25:39.242Z,18.00
2019-04-22T00:26:40.647Z,18.40
2019-04-22T00:28:50.092Z,20.00
2019-04-22T00:30:00.641Z,17.40
2019-04-22T00:31:00.718Z,19.00
2019-04-22T00:31:58.975Z,19.00
2019-04-22T00:33:08.070Z,13.00
2019-04-22T00:34:21.314Z,18.00
2019-04-22T00:35:19.514Z,21.40
2019-04-22T00:36:31.851Z,20.80
2019-04-22T00:37:35.784Z,23.00
2019-04-22T00:38:38.313Z,22.60
2019-04-22T00:39:42.725Z,23.00
2019-04-22T00:40:44.611Z,17.80
2019-04-22T00:41:56.492Z,17.60
2019-04-22T00:42:58.349Z,20.20
2019-04-22T00:44:02.937Z,27.20
2019-04-22T00:45:15.697Z,24.40
2019-04-22T00:46:11.036Z,23.40
2019-04-22T00:47:23.434Z,25.20
2019-04-22T00:48:48.941Z,23.00
2019-04-22T00:50:30.186Z,22.40
2019-04-22T00:51:47.422Z,18.80
2019-04-22T00:52:41.970Z,25.00
2019-04-22T00:53:47.600Z,23.20
2019-04-22T00:54:54.443Z,26.60
2019-04-22T00:57:12.552Z,21.20
2019-04-22T00:58:15.851Z,20.40
2019-04-22T00:59:22.300Z,21.80
2019-04-22T01:00:24.687Z,20.20
2019-04-22T01:01:31.936Z,25.80
2019-04-22T01:02:41.508Z,18.80
2019-04-22T01:03:47.517Z,22.40
2019-04-22T01:04:47.147Z,17.20
2019-04-22T01:05:50.960Z,22.20
2019-04-22T01:06:51.439Z,19.60
2019-04-22T01:07:57.058Z,20.20
2019-04-22T01:09:04.636Z,20.80
2019-04-22T01:10:07.518Z,20.20
2019-04-22T01:11:18.317Z,17.40
2019-04-22T01:12:21.254Z,23.60
2019-04-22T01:13:21.671Z,18.80
2019-04-22T01:14:21.974Z,23.80
2019-04-22T01:15:33.934Z,21.80
2019-04-22T01:16:35.686Z,22.00
2019-04-22T01:17:40.164Z,19.80
2019-04-22T01:18:42.349Z,21.80
2019-04-22T01:20:05.000Z,20.20
2019-04-22T01:21:08.684Z,18.80
2019-04-22T01:22:03.075Z,23.40
2019-04-22T01:23:05.537Z,16.00
2019-04-22T01:24:02.879Z,24.00
2019-04-22T01:25:07.976Z,23.80
2019-04-22T01:26:15.451Z,16.40
2019-04-22T01:27:19.065Z,16.60
2019-04-22T01:28:23.849Z,22.20
2019-04-22T01:29:28.057Z,16.80
2019-04-22T01:30:30.411Z,14.80
2019-04-22T01:31:27.479Z,16.80
2019-04-22T01:32:36.124Z,14.40
2019-04-22T01:33:38.992Z,13.20
2019-04-22T01:34:52.732Z,15.20
2019-04-22T01:36:02.728Z,16.20
2019-04-22T01:37:02.957Z,17.20
2019-04-22T01:38:07.835Z,19.00
2019-04-22T01:39:33.859Z,15.80
2019-04-22T01:40:24.178Z,13.00
2019-04-22T01:41:36.996Z,14.40
2019-04-22T01:42:35.826Z,13.40
2019-04-22T01:43:50.338Z,13.20
2019-04-22T01:44:45.248Z,13.60
2019-04-22T01:45:45.055Z,12.80
2019-04-22T01:46:50.692Z,14.00
2019-04-22T01:48:00.627Z,13.80
2019-04-22T01:49:06.526Z,13.00
2019-04-22T01:50:06.233Z,12.20
2019-04-22T01:51:07.591Z,11.60
2019-04-22T01:53:21.326Z,13.20
2019-04-22T01:54:29.815Z,13.00
2019-04-22T01:55:31.080Z,11.60
2019-04-22T01:56:38.997Z,11.00
2019-04-22T01:57:39.913Z,10.00
2019-04-22T01:58:33.532Z,13.20
2019-04-22T01:59:36.741Z,16.60
2019-04-22T02:00:53.467Z,13.20
2019-04-22T02:02:00.550Z,14.00
2019-04-22T02:03:07.142Z,13.00
2019-04-22T02:04:10.113Z,14.20
2019-04-22T02:05:12.276Z,12.00
2019-04-22T02:06:17.812Z,10.60
2019-04-22T02:07:16.517Z,10.00
2019-04-22T02:08:31.440Z,12.20
2019-04-22T02:09:31.364Z,11.80
2019-04-22T02:11:40.513Z,12.20
2019-04-22T02:12:43.356Z,12.00
2019-04-22T02:13:52.284Z,11.00
2019-04-22T02:15:58.282Z,11.80
2019-04-22T02:17:06.495Z,14.00
2019-04-22T02:18:11.559Z,12.60
2019-04-22T02:19:11.212Z,11.80
2019-04-22T02:20:11.296Z,11.80
2019-04-22T02:21:13.699Z,14.60
2019-04-22T02:22:38.579Z,12.60
2019-04-22T02:23:45.451Z,14.80
2019-04-22T02:24:38.329Z,13.60
2019-04-22T02:25:41.000Z,12.60
2019-04-22T02:26:40.273Z,12.20
2019-04-22T02:27:45.596Z,14.00
2019-04-22T02:29:03.609Z,14.60
2019-04-22T02:32:10.630Z,11.80
2019-04-22T02:33:46.782Z,14.00
2019-04-22T02:34:32.933Z,12.80
2019-04-22T02:35:44.700Z,11.60
2019-04-22T02:37:23.309Z,13.00
2019-04-22T02:39:38.306Z,13.00
2019-04-22T02:40:56.467Z,13.60
2019-04-22T02:41:46.504Z,14.20
2019-04-22T02:42:51.847Z,13.40
2019-04-22T02:43:59.554Z,13.00
2019-04-22T02:44:53.122Z,15.00
2019-04-22T02:48:31.507Z,12.80
2019-04-22T02:49:22.645Z,12.80
2019-04-22T02:51:22.164Z,11.20
2019-04-22T02:52:30.997Z,11.40
2019-04-22T02:54:12.176Z,11.80
2019-04-22T02:59:04.219Z,10.20
2019-04-22T03:01:05.965Z,11.80
2019-04-22T03:02:07.262Z,10.40
2019-04-22T03:03:20.958Z,11.60
2019-04-22T03:04:35.586Z,10.80
2019-04-22T03:05:27.932Z,9.60
2019-04-22T03:06:30.456Z,9.60
2019-04-22T03:07:56.120Z,10.00
2019-04-22T03:08:39.646Z,9.80
2019-04-22T03:09:55.083Z,10.40
2019-04-22T03:11:07.475Z,9.80
2019-04-22T03:11:56.642Z,11.00
2019-04-22T03:12:55.942Z,13.60
2019-04-22T03:15:02.742Z,10.60
2019-04-22T03:17:18.008Z,8.20
2019-04-22T03:18:19.450Z,9.80
2019-04-22T03:19:46.820Z,12.40
2019-04-22T03:20:24.777Z,8.40
2019-04-22T03:21:27.997Z,9.00
2019-04-22T03:22:40.938Z,11.20
2019-04-22T03:23:49.515Z,9.80
2019-04-22T03:26:58.555Z,10.00
2019-04-22T03:28:09.686Z,9.40
2019-04-22T03:28:57.152Z,11.40
2019-04-22T03:31:47.512Z,8.80
2019-04-22T03:32:59.324Z,9.20
2019-04-22T03:33:52.332Z,10.00
2019-04-22T03:35:19.190Z,9.20
2019-04-22T03:35:55.565Z,10.20
2019-04-22T03:37:13.950Z,8.20
2019-04-22T03:37:52.634Z,6.80
2019-04-22T03:40:05.706Z,8.00
2019-04-22T03:41:32.211Z,8.80
2019-04-22T03:43:14.131Z,10.80
2019-04-22T03:45:26.608Z,8.00
2019-04-22T03:46:30.392Z,8.00
2019-04-22T03:47:38.656Z,9.00
2019-04-22T03:48:38.117Z,9.00
2019-04-22T03:50:39.434Z,8.00
2019-04-22T03:51:56.741Z,7.80
2019-04-22T03:52:56.533Z,7.40
2019-04-22T03:54:26.001Z,8.20
2019-04-22T03:55:05.085Z,7.60
2019-04-22T03:56:47.302Z,6.40
2019-04-22T03:59:28.634Z,6.80
2019-04-22T04:00:35.681Z,6.00
2019-04-22T04:01:38.664Z,4.40
2019-04-22T04:02:43.514Z,7.20
2019-04-22T04:03:51.282Z,7.60
2019-04-22T04:04:39.338Z,4.60
2019-04-22T04:07:01.816Z,5.40
2019-04-22T04:09:04.230Z,5.00
2019-04-22T04:10:10.486Z,7.00
2019-04-22T04:10:58.218Z,7.00
2019-04-22T04:12:22.054Z,6.20
2019-04-22T04:13:20.542Z,5.60
2019-04-22T04:15:24.381Z,5.80
2019-04-22T04:16:36.887Z,5.80
2019-04-22T04:17:36.929Z,7.00
2019-04-22T04:18:46.666Z,6.00
2019-04-22T04:19:56.391Z,5.00
2019-04-22T04:21:46.865Z,4.00
2019-04-22T04:23:18.246Z,7.40
2019-04-22T04:27:41.804Z,4.60
2019-04-22T04:29:37.723Z,5.00
2019-04-22T04:31:36.664Z,5.00
2019-04-22T04:32:48.337Z,7.00
2019-04-22T04:33:50.935Z,4.80
2019-04-22T04:35:03.152Z,5.80
2019-04-22T04:37:55.688Z,6.60
2019-04-22T04:40:23.180Z,5.00
2019-04-22T04:41:19.407Z,4.20
2019-04-22T04:43:26.103Z,7.00
2019-04-22T04:44:48.933Z,5.00
2019-04-22T04:45:41.178Z,5.00
2019-04-22T04:46:45.175Z,4.40
2019-04-22T04:47:55.325Z,6.60
2019-04-22T04:48:51.825Z,4.00
2019-04-22T04:49:54.657Z,5.60
2019-04-22T04:52:06.662Z,4.00
2019-04-22T04:54:23.825Z,6.80
2019-04-22T04:55:26.628Z,6.80
2019-04-22T04:56:23.257Z,4.00
2019-04-22T04:57:33.608Z,5.00
2019-04-22T05:04:04.957Z,6.00
2019-04-22T05:05:08.353Z,6.00
2019-04-22T05:06:01.448Z,6.20
2019-04-22T05:07:18.753Z,5.20
2019-04-22T05:08:33.018Z,5.00
2019-04-22T05:09:21.449Z,8.20
2019-04-22T05:11:24.847Z,5.60
2019-04-22T05:12:40.998Z,5.40
2019-04-22T05:13:32.572Z,5.60
2019-04-22T05:14:32.457Z,6.00
2019-04-22T05:15:43.405Z,8.00
2019-04-22T05:16:51.896Z,6.60
2019-04-22T05:17:55.485Z,7.40
2019-04-22T05:19:08.884Z,5.60
2019-04-22T05:19:56.805Z,5.00
2019-04-22T05:21:09.585Z,7.60
2019-04-22T05:22:06.049Z,6.00
2019-04-22T05:23:16.498Z,5.80
2019-04-22T05:24:19.852Z,7.40
2019-04-22T05:25:17.862Z,5.80
2019-04-22T05:26:27.938Z,7.00
2019-04-22T05:28:31.498Z,6.00
2019-04-22T05:29:56.575Z,6.00
2019-04-22T05:30:42.462Z,7.00
2019-04-22T05:31:43.573Z,6.00
2019-04-22T05:33:51.463Z,6.40
2019-04-22T05:34:52.913Z,6.80
2019-04-22T05:36:03.041Z,7.00
2019-04-22T05:37:10.387Z,7.00
2019-04-22T05:38:09.681Z,5.20
2019-04-22T05:39:14.207Z,7.00
2019-04-22T05:40:20.043Z,8.60
2019-04-22T05:41:25.413Z,6.80
2019-04-22T05:42:34.223Z,8.60
2019-04-22T05:43:32.922Z,6.20
2019-04-22T05:44:34.641Z,6.80
2019-04-22T05:45:40.527Z,6.00
2019-04-22T05:46:40.825Z,6.40
2019-04-22T05:47:46.367Z,6.20
2019-04-22T05:48:54.263Z,6.80
2019-04-22T05:49:54.631Z,8.00
2019-04-22T05:51:03.237Z,8.80
2019-04-22T05:52:03.151Z,6.40
2019-04-22T05:53:08.642Z,5.60
2019-04-22T05:54:19.436Z,6.20
2019-04-22T05:55:23.786Z,5.20
2019-04-22T05:57:44.258Z,7.00
2019-04-22T05:58:39.471Z,5.00
2019-04-22T05:59:48.774Z,5.00
2019-04-22T06:01:23.635Z,6.00
2019-04-22T06:02:00.735Z,5.80
2019-04-22T06:04:11.282Z,4.00
2019-04-22T06:05:10.126Z,5.00
2019-04-22T06:06:13.737Z,6.00
2019-04-22T06:07:22.930Z,5.20
2019-04-22T06:08:25.703Z,4.60
2019-04-22T06:09:30.215Z,4.60
2019-04-22T06:10:39.925Z,6.00
2019-04-22T06:11:36.290Z,5.20
2019-04-22T06:12:40.390Z,5.00
2019-04-22T06:13:46.624Z,6.00
2019-04-22T06:15:01.138Z,5.00
2019-04-22T06:16:03.683Z,5.00
2019-04-22T06:17:10.814Z,6.00
2019-04-22T06:19:18.820Z,4.00
2019-04-22T06:20:27.781Z,4.00
2019-04-22T06:21:35.407Z,5.20
2019-04-22T06:23:00.310Z,5.00
2019-04-22T06:23:40.284Z,5.00
2019-04-22T06:24:41.978Z,4.60
2019-04-22T06:26:10.120Z,4.40
2019-04-22T06:28:07.130Z,4.60
2019-04-22T06:29:01.626Z,4.00
2019-04-22T06:30:07.976Z,4.00
2019-04-22T06:31:16.048Z,3.60
2019-04-22T06:33:21.070Z,4.20
2019-04-22T06:34:27.610Z,5.00
2019-04-22T06:36:42.429Z,4.00
2019-04-22T06:37:43.290Z,3.40
2019-04-22T06:39:44.768Z,4.00
2019-04-22T06:40:55.310Z,4.00
2019-04-22T06:41:58.877Z,3.00
2019-04-22T06:43:03.396Z,3.40
2019-04-22T06:44:04.846Z,3.60
2019-04-22T06:45:12.106Z,3.40
2019-04-22T06:46:14.404Z,3.00
2019-04-22T06:47:26.967Z,3.20
2019-04-22T06:48:23.590Z,4.00
2019-04-22T06:49:33.307Z,3.40
2019-04-22T06:50:40.498Z,4.00
2019-04-22T06:51:40.584Z,3.00
2019-04-22T06:52:40.665Z,3.80
2019-04-22T06:53:40.912Z,3.80
2019-04-22T06:54:48.965Z,3.20
2019-04-22T06:55:52.849Z,4.00
2019-04-22T06:58:00.369Z,3.40
2019-04-22T06:59:06.918Z,3.00
2019-04-22T07:00:14.260Z,3.00
2019-04-22T07:01:18.095Z,3.00
2019-04-22T07:02:24.022Z,4.00
2019-04-22T07:03:34.727Z,3.20
2019-04-22T07:04:30.273Z,3.40
2019-04-22T07:05:33.045Z,4.00
2019-04-22T07:06:41.881Z,2.00
2019-04-22T07:07:45.362Z,3.20
2019-04-22T07:10:50.818Z,5.00
2019-04-22T07:12:09.797Z,4.20
2019-04-22T07:13:01.193Z,4.80
2019-04-22T07:15:23.265Z,3.60
2019-04-22T07:18:31.468Z,2.80
2019-04-22T07:19:36.108Z,4.20
2019-04-22T07:20:42.177Z,4.60
2019-04-22T07:21:43.988Z,6.00
2019-04-22T07:24:02.691Z,5.80
2019-04-22T07:24:59.054Z,5.60
2019-04-22T07:26:06.043Z,6.20
2019-04-22T07:27:10.524Z,6.60
2019-04-22T07:29:21.681Z,5.40
2019-04-22T07:30:22.406Z,5.40
2019-04-22T07:31:42.716Z,4.40
2019-04-22T07:32:53.325Z,5.00
2019-04-22T07:34:44.551Z,5.60
2019-04-22T07:37:00.386Z,5.00
2019-04-22T07:37:57.172Z,3.60
2019-04-22T07:39:00.950Z,5.20
2019-04-22T07:40:02.247Z,5.80
2019-04-22T07:41:06.577Z,6.00
2019-04-22T07:42:16.776Z,6.00
2019-04-22T07:45:29.834Z,6.00
2019-04-22T07:46:39.178Z,6.40
2019-04-22T07:47:58.974Z,6.80
2019-04-22T07:49:46.977Z,4.60
2019-04-22T07:51:00.705Z,4.20
2019-04-22T07:51:49.618Z,5.00
2019-04-22T07:52:51.421Z,6.20
2019-04-22T07:54:01.726Z,5.00
2019-04-22T07:55:01.047Z,5.00
2019-04-22T07:56:16.222Z,5.00
2019-04-22T07:57:19.901Z,6.00
2019-04-22T07:59:26.520Z,5.40
2019-04-22T08:00:37.296Z,4.00
2019-04-22T08:02:44.136Z,5.00
2019-04-22T08:04:05.484Z,5.60
2019-04-22T08:04:58.029Z,5.40
2019-04-22T08:06:58.949Z,5.80
2019-04-22T08:08:07.229Z,5.00
2019-04-22T08:09:07.603Z,5.40
2019-04-22T08:10:17.226Z,5.00
2019-04-22T08:11:30.931Z,5.60
2019-04-22T08:12:18.809Z,4.40
2019-04-22T08:13:25.368Z,4.60
2019-04-22T08:14:34.461Z,6.00
2019-04-22T08:15:41.507Z,6.00
2019-04-22T08:16:43.770Z,5.40
2019-04-22T08:17:54.990Z,5.00
2019-04-22T08:18:47.280Z,6.20
2019-04-22T08:19:56.086Z,7.20
2019-04-22T08:20:59.063Z,6.20
2019-04-22T08:22:01.450Z,6.60
2019-04-22T08:23:09.618Z,5.00
2019-04-22T08:24:29.331Z,8.20
2019-04-22T08:25:18.004Z,4.00
2019-04-22T08:26:25.536Z,7.00
2019-04-22T08:27:22.523Z,7.00
2019-04-22T08:29:46.059Z,9.20
2019-04-22T08:30:50.511Z,7.80
2019-04-22T08:31:48.614Z,7.40
2019-04-22T08:32:53.144Z,6.80
2019-04-22T08:33:55.683Z,6.00
2019-04-22T08:35:04.618Z,6.80
2019-04-22T08:36:06.480Z,6.60
2019-04-22T08:38:17.637Z,9.00
2019-04-22T08:39:18.686Z,6.00
2019-04-22T08:40:32.515Z,7.80
2019-04-22T08:42:43.532Z,5.40
2019-04-22T08:43:48.286Z,5.60
2019-04-22T08:45:50.991Z,5.00
2019-04-22T08:46:53.585Z,6.00
2019-04-22T08:47:54.757Z,5.60
2019-04-22T08:49:00.800Z,4.40
2019-04-22T08:50:14.087Z,5.80
2019-04-22T08:51:13.619Z,4.80
2019-04-22T08:52:20.841Z,5.20
2019-04-22T08:53:23.870Z,7.40
2019-04-22T08:54:26.067Z,7.00
2019-04-22T08:55:35.373Z,6.00
2019-04-22T08:56:37.708Z,7.40
2019-04-22T08:58:03.182Z,7.20
2019-04-22T08:58:50.831Z,8.00
2019-04-22T08:59:54.483Z,7.80
2019-04-22T09:01:02.592Z,5.60
2019-04-22T09:02:04.863Z,6.00
2019-04-22T09:03:06.771Z,7.80
2019-04-22T09:04:10.003Z,7.80
2019-04-22T09:05:32.892Z,8.20
2019-04-22T09:06:36.077Z,6.20
2019-04-22T09:07:28.898Z,5.00
2019-04-22T09:08:34.159Z,6.40
2019-04-22T09:09:42.921Z,6.00
2019-04-22T09:10:46.762Z,7.00
2019-04-22T09:11:46.902Z,4.80
2019-04-22T09:13:55.166Z,6.80
2019-04-22T09:14:55.360Z,6.80
2019-04-22T09:16:05.341Z,6.80
2019-04-22T09:17:10.376Z,6.20
2019-04-22T09:18:14.529Z,7.00
2019-04-22T09:19:19.743Z,8.40
2019-04-22T09:20:24.676Z,5.40
2019-04-22T09:22:26.324Z,6.00
2019-04-22T09:23:38.740Z,6.20
2019-04-22T09:24:41.834Z,8.20
2019-04-22T09:25:51.109Z,8.40
2019-04-22T09:26:48.747Z,11.40
2019-04-22T09:28:08.717Z,8.80
2019-04-22T09:29:34.119Z,6.60
2019-04-22T09:30:04.965Z,9.80
2019-04-22T09:31:11.625Z,7.80
2019-04-22T09:33:20.940Z,9.00
2019-04-22T09:34:23.035Z,8.60
2019-04-22T09:35:31.874Z,8.00
2019-04-22T09:36:33.890Z,6.80
2019-04-22T09:37:38.986Z,8.60
2019-04-22T09:39:57.434Z,9.00
2019-04-22T09:41:05.444Z,9.00
2019-04-22T09:41:52.541Z,9.40
2019-04-22T09:42:56.391Z,10.00
2019-04-22T09:45:05.715Z,9.60
2019-04-22T09:46:09.040Z,9.80
2019-04-22T09:47:19.216Z,10.00
2019-04-22T09:48:26.716Z,10.00
2019-04-22T09:49:28.496Z,9.00
2019-04-22T09:50:40.485Z,9.80
2019-04-22T09:51:37.496Z,11.80
2019-04-22T09:52:42.137Z,9.20
2019-04-22T09:53:57.610Z,14.80
2019-04-22T09:55:56.781Z,9.60
2019-04-22T09:56:58.589Z,8.60
2019-04-22T09:58:02.835Z,8.80
2019-04-22T09:59:07.507Z,9.00
2019-04-22T10:02:24.996Z,9.00
2019-04-22T10:03:26.016Z,7.60
2019-04-22T10:04:36.447Z,9.00
2019-04-22T10:05:48.064Z,8.80
2019-04-22T10:06:36.685Z,9.00
2019-04-22T10:07:44.887Z,11.20
2019-04-22T10:09:01.752Z,9.40
2019-04-22T10:11:04.547Z,10.40
2019-04-22T10:12:02.755Z,8.20
2019-04-22T10:13:12.916Z,7.00
2019-04-22T10:14:12.541Z,9.40
2019-04-22T10:15:14.981Z,8.80
2019-04-22T10:16:27.474Z,10.00
2019-04-22T10:17:26.126Z,11.20
2019-04-22T10:18:34.051Z,10.60
2019-04-22T10:19:37.243Z,10.00
2019-04-22T10:20:42.929Z,10.00
2019-04-22T10:23:55.085Z,12.00
2019-04-22T10:24:57.075Z,16.80
2019-04-22T10:26:04.615Z,10.40
2019-04-22T10:27:01.591Z,10.80
2019-04-22T10:30:22.006Z,11.20
2019-04-22T10:31:23.872Z,9.20
2019-04-22T10:32:27.122Z,11.00
2019-04-22T10:33:25.760Z,10.60
2019-04-22T10:34:22.997Z,14.00
2019-04-22T10:35:19.866Z,12.20
2019-04-22T10:36:21.456Z,12.00
2019-04-22T10:37:25.613Z,11.00
2019-04-22T10:38:28.715Z,11.60
2019-04-22T10:39:42.052Z,10.00
2019-04-22T10:40:38.748Z,8.60
2019-04-22T10:41:41.211Z,10.20
2019-04-22T10:42:45.175Z,10.40
2019-04-22T10:43:47.988Z,10.00
2019-04-22T10:44:51.892Z,8.40
2019-04-22T10:45:54.628Z,8.00
2019-04-22T10:46:58.037Z,11.00
2019-04-22T10:48:01.679Z,10.20
2019-04-22T10:49:04.234Z,11.00
2019-04-22T10:50:10.289Z,9.40
2019-04-22T10:51:14.786Z,10.20
2019-04-22T10:52:18.209Z,10.40
2019-04-22T10:53:21.680Z,10.40
2019-04-22T10:54:25.370Z,9.80
2019-04-22T10:55:27.552Z,11.00
2019-04-22T10:56:30.637Z,10.00
2019-04-22T10:57:33.923Z,10.60
2019-04-22T10:58:36.077Z,9.60
2019-04-22T10:59:38.748Z,10.20
2019-04-22T11:00:42.365Z,10.40
2019-04-22T11:01:44.560Z,8.40
2019-04-22T11:02:47.830Z,9.00
2019-04-22T11:03:51.042Z,9.60
2019-04-22T11:04:54.496Z,9.00
2019-04-22T11:05:57.232Z,9.60
2019-04-22T11:07:05.464Z,10.00
2019-04-22T11:08:08.054Z,9.80
2019-04-22T11:09:10.607Z,9.40
2019-04-22T11:10:31.502Z,8.80
2019-04-22T11:11:30.084Z,7.20
2019-04-22T11:12:26.538Z,8.00
2019-04-22T11:13:28.257Z,9.80
2019-04-22T11:14:30.824Z,9.40
2019-04-22T11:15:34.841Z,9.00
2019-04-22T11:16:39.385Z,10.00
2019-04-22T11:17:43.770Z,9.20
2019-04-22T11:18:47.449Z,12.80
2019-04-22T11:19:50.273Z,21.00
2019-04-22T11:20:53.581Z,21.00
2019-04-22T11:22:03.787Z,25.20
2019-04-22T11:23:00.676Z,23.00
2019-04-22T11:24:05.127Z,27.00
2019-04-22T11:25:09.815Z,24.00
2019-04-22T11:26:12.448Z,27.20
2019-04-22T11:27:16.826Z,24.80
2019-04-22T11:28:20.622Z,22.60
2019-04-22T11:29:23.807Z,21.00
2019-04-22T11:30:28.075Z,17.40
2019-04-22T11:31:32.340Z,17.20
2019-04-22T11:32:38.261Z,14.00
2019-04-22T11:33:42.677Z,18.40
2019-04-22T11:34:46.737Z,14.40
2019-04-22T11:35:50.129Z,14.60
2019-04-22T11:36:52.697Z,13.60
2019-04-22T11:37:56.766Z,14.40
2019-04-22T11:39:02.377Z,14.80
2019-04-22T11:40:16.550Z,14.60
2019-04-22T11:41:12.642Z,13.20
2019-04-22T11:42:16.323Z,15.00
2019-04-22T11:43:20.081Z,15.20
2019-04-22T11:44:25.399Z,15.20
2019-04-22T11:45:29.116Z,15.80
2019-04-22T11:46:31.548Z,13.60
2019-04-22T11:47:35.378Z,14.80
2019-04-22T11:48:38.128Z,15.00
2019-04-22T11:49:41.714Z,13.80
2019-04-22T11:50:44.282Z,13.80
2019-04-22T11:51:47.921Z,12.00
2019-04-22T11:52:51.045Z,12.40
2019-04-22T11:53:54.780Z,17.00
2019-04-22T11:54:57.026Z,13.20
2019-04-22T11:56:00.486Z,12.20
2019-04-22T11:57:05.492Z,12.00
2019-04-22T11:58:18.978Z,15.00
2019-04-22T11:59:22.638Z,12.60
2019-04-22T12:00:27.925Z,11.80
2019-04-22T12:01:30.845Z,13.60
2019-04-22T12:02:33.416Z,11.60
2019-04-22T12:03:36.072Z,11.40
2019-04-22T12:04:40.046Z,14.40
2019-04-22T12:05:43.949Z,12.80
2019-04-22T12:06:46.271Z,13.80
2019-04-22T12:07:49.026Z,15.00
2019-04-22T12:08:51.997Z,12.00
2019-04-22T12:09:55.599Z,12.40
2019-04-22T12:11:01.904Z,12.00
2019-04-22T12:12:05.738Z,11.80
2019-04-22T12:13:08.344Z,10.20
2019-04-22T12:14:11.804Z,11.80
2019-04-22T12:15:15.286Z,12.60
2019-04-22T12:16:19.060Z,11.20
2019-04-22T12:17:22.345Z,11.40
2019-04-22T12:18:25.329Z,10.80
2019-04-22T12:19:29.406Z,10.40
2019-04-22T12:20:32.982Z,10.40
2019-04-22T12:21:37.042Z,10.80
2019-04-22T12:22:41.058Z,11.60
2019-04-22T12:23:44.942Z,9.80
2019-04-22T12:24:48.143Z,9.00
2019-04-22T12:25:58.030Z,10.40
2019-04-22T12:26:56.458Z,11.00
2019-04-22T12:27:59.271Z,10.20
2019-04-22T12:29:02.802Z,12.40
2019-04-22T12:30:09.286Z,11.00
2019-04-22T12:31:13.558Z,10.60
2019-04-22T12:32:16.049Z,9.20
2019-04-22T12:33:19.192Z,8.40
2019-04-22T12:34:23.758Z,9.60
2019-04-22T12:35:26.369Z,8.60
2019-04-22T12:36:30.591Z,11.20
2019-04-22T12:37:42.902Z,9.20
2019-04-22T12:38:37.777Z,10.80
2019-04-22T12:39:41.221Z,11.00
2019-04-22T12:40:51.312Z,8.80
2019-04-22T12:41:48.074Z,8.00
2019-04-22T12:42:51.342Z,12.00
2019-04-22T12:43:53.754Z,11.40
2019-04-22T12:44:58.271Z,11.00
2019-04-22T12:46:02.431Z,10.00
2019-04-22T12:47:07.953Z,10.00
2019-04-22T12:48:10.707Z,12.00
2019-04-22T12:49:14.164Z,12.40
2019-04-22T12:50:25.570Z,11.80
2019-04-22T12:51:23.126Z,11.40
2019-04-22T12:52:34.035Z,12.80
2019-04-22T12:53:31.519Z,10.00
2019-04-22T12:54:35.050Z,9.40
2019-04-22T12:55:39.661Z,13.80
2019-04-22T12:56:43.975Z,11.60
2019-04-22T12:57:46.525Z,11.00
2019-04-22T12:58:49.892Z,11.20
2019-04-22T12:59:53.398Z,13.00
2019-04-22T13:00:55.297Z,12.60
2019-04-22T13:02:00.684Z,12.80
2019-04-22T13:03:05.224Z,13.80
2019-04-22T13:04:11.766Z,13.60
2019-04-22T13:05:14.302Z,14.80
2019-04-22T13:06:17.549Z,10.60
2019-04-22T13:07:20.090Z,12.20
2019-04-22T13:08:23.448Z,11.00
2019-04-22T13:09:27.487Z,11.80
2019-04-22T13:10:40.635Z,10.20
2019-04-22T13:11:36.965Z,11.60
2019-04-22T13:12:40.663Z,12.00
2019-04-22T13:13:45.145Z,12.20
2019-04-22T13:14:48.879Z,13.20
2019-04-22T13:15:51.118Z,11.60
2019-04-22T13:16:55.129Z,12.40
2019-04-22T13:18:07.194Z,13.20
2019-04-22T13:19:09.082Z,13.20
2019-04-22T13:20:09.807Z,15.20
2019-04-22T13:21:13.120Z,12.40
2019-04-22T13:22:16.941Z,17.80
2019-04-22T13:23:19.996Z,15.40
2019-04-22T13:24:23.640Z,16.40
2019-04-22T13:25:28.428Z,14.40
2019-04-22T13:26:31.844Z,17.40
2019-04-22T13:27:35.139Z,11.40
2019-04-22T13:28:39.021Z,12.00
2019-04-22T13:29:43.382Z,15.80
2019-04-22T13:30:46.501Z,15.20
2019-04-22T13:31:50.917Z,15.00
2019-04-22T13:32:54.589Z,19.20
2019-04-22T13:33:59.742Z,16.60
2019-04-22T13:35:02.144Z,17.00
2019-04-22T13:36:08.022Z,16.00
2019-04-22T13:37:10.791Z,16.40
2019-04-22T13:38:13.026Z,15.40
2019-04-22T13:39:16.716Z,17.40
2019-04-22T13:40:21.077Z,18.40
2019-04-22T13:41:31.700Z,15.80
2019-04-22T13:42:29.542Z,15.80
2019-04-22T13:43:31.819Z,15.40
2019-04-22T13:44:35.577Z,18.60
2019-04-22T13:45:38.611Z,19.40
2019-04-22T13:47:02.927Z,18.60
2019-04-22T13:48:06.338Z,21.00
2019-04-22T13:49:21.280Z,16.60
2019-04-22T13:51:33.939Z,22.60
2019-04-22T13:53:48.127Z,14.20
2019-04-22T13:55:44.970Z,21.20
2019-04-22T13:56:43.924Z,22.20
2019-04-22T13:57:47.529Z,19.60
2019-04-22T13:58:51.482Z,20.60
2019-04-22T13:59:43.077Z,23.60
2019-04-22T14:00:42.575Z,20.40
2019-04-22T14:01:50.682Z,15.60
2019-04-22T14:03:12.855Z,15.60
2019-04-22T14:04:18.527Z,20.60
2019-04-22T14:05:24.463Z,20.80
2019-04-22T14:06:27.049Z,16.00
2019-04-22T14:07:30.743Z,17.60
2019-04-22T14:08:33.345Z,22.80
2019-04-22T14:09:35.943Z,20.80
2019-04-22T14:10:38.809Z,15.80
2019-04-22T14:11:49.726Z,16.00
2019-04-22T14:12:46.696Z,15.40
2019-04-22T14:13:50.249Z,17.00
2019-04-22T14:14:56.010Z,15.00
2019-04-22T14:16:01.243Z,15.40
2019-04-22T14:17:04.983Z,12.60
2019-04-22T14:18:07.568Z,16.00
2019-04-22T14:19:11.807Z,16.40
2019-04-22T14:20:16.058Z,19.00
2019-04-22T14:21:18.893Z,19.40
2019-04-22T14:22:22.281Z,16.80
2019-04-22T14:23:24.743Z,16.60
2019-04-22T14:24:27.918Z,21.00
2019-04-22T14:25:30.807Z,19.60
2019-04-22T14:26:44.285Z,24.00
2019-04-22T14:27:48.609Z,22.00
2019-04-22T14:28:44.100Z,22.80
2019-04-22T14:29:47.261Z,19.20
2019-04-22T14:30:50.498Z,19.00
2019-04-22T14:32:05.490Z,16.60
2019-04-22T14:33:00.382Z,19.80
2019-04-22T14:34:05.245Z,14.80
2019-04-22T14:35:09.212Z,17.60
2019-04-22T14:36:12.240Z,18.00
2019-04-22T14:37:16.328Z,19.00
2019-04-22T14:38:21.887Z,17.20
2019-04-22T14:39:24.414Z,19.80
2019-04-22T14:40:28.698Z,19.60
2019-04-22T14:41:49.009Z,22.80
2019-04-22T14:43:02.922Z,20.00
2019-04-22T14:45:05.374Z,17.60
2019-04-22T14:45:22.027Z,20.80
2019-04-22T14:47:20.095Z,21.20
2019-04-22T14:48:40.467Z,22.40
2019-04-22T14:49:31.899Z,18.00
2019-04-22T14:50:35.499Z,18.00
2019-04-22T14:51:39.645Z,16.20
2019-04-22T14:52:45.913Z,17.00
2019-04-22T14:53:44.568Z,21.00
2019-04-22T14:54:45.893Z,18.00
2019-04-22T14:55:39.997Z,20.00
2019-04-22T14:56:44.662Z,16.80
2019-04-22T14:57:49.013Z,21.00
2019-04-22T14:58:51.497Z,20.00
2019-04-22T14:59:55.791Z,20.00
2019-04-22T15:00:59.178Z,16.80
2019-04-22T15:02:03.409Z,18.00
2019-04-22T15:03:07.996Z,16.20
2019-04-22T15:04:11.208Z,20.40
2019-04-22T15:05:14.481Z,21.00
2019-04-22T15:06:16.193Z,19.80
2019-04-22T15:07:19.183Z,16.20
2019-04-22T15:08:22.960Z,22.20
2019-04-22T15:09:26.098Z,20.20
2019-04-22T15:10:28.566Z,18.60
2019-04-22T15:11:43.702Z,19.00
2019-04-22T15:12:43.710Z,21.00
2019-04-22T15:13:41.240Z,18.80
2019-04-22T15:14:44.034Z,17.80
2019-04-22T15:15:54.921Z,17.60
2019-04-22T15:16:57.649Z,17.00
2019-04-22T15:18:08.066Z,19.20
2019-04-22T15:19:17.946Z,19.60
2019-04-22T15:20:31.938Z,16.20
2019-04-22T15:21:34.564Z,16.40
2019-04-22T15:22:38.893Z,19.60
2019-04-22T15:23:42.587Z,18.40
2019-04-22T15:24:46.868Z,16.40
2019-04-22T15:25:50.744Z,16.00
2019-04-22T15:26:56.315Z,17.80
2019-04-22T15:27:59.457Z,19.80
2019-04-22T15:29:03.432Z,20.20
2019-04-22T15:30:07.630Z,18.40
2019-04-22T15:31:11.147Z,20.80
2019-04-22T15:32:13.699Z,17.40
2019-04-22T15:33:17.270Z,17.40
2019-04-22T15:34:20.732Z,20.00
2019-04-22T15:35:23.272Z,15.80
2019-04-22T15:36:26.342Z,17.80
2019-04-22T15:37:29.226Z,17.00
2019-04-22T15:38:32.617Z,17.60
2019-04-22T15:39:36.318Z,16.60
2019-04-22T15:40:38.937Z,17.60
2019-04-22T15:41:50.392Z,17.60
2019-04-22T15:42:46.960Z,14.80
2019-04-22T15:43:49.794Z,17.00
2019-04-22T15:44:53.880Z,18.40
2019-04-22T15:45:57.802Z,19.60